Time;durP1;ratioP1;P1;durP2;ratioP2;P2;SDS_P1;SDS_P2;PMS_P1;PMS_P2;Temp;Humidity;BMP_temperature;BMP_pressure;BME280_temperature;BME280_humidity;BME280_pressure;Samples;Min_cycle;Max_cycle;Signal;HPM_P1;HPM_P2
2023/03/03 00:01:32;;;;;;;36.40;24.23;;;9.50;52.30;;;;;;5055392;28;20456;-74
2023/03/03 00:03:59;;;;;;;33.43;24.03;;;9.50;52.30;;;;;;5043088;28;20464;-74
2023/03/03 00:06:26;;;;;;;35.47;25.07;;;9.50;52.40;;;;;;5035391;28;20944;-74
2023/03/03 00:08:54;;;;;;;36.83;24.63;;;9.50;52.40;;;;;;5044908;28;20535;-74
2023/03/03 00:11:21;;;;;;;34.80;24.27;;;9.40;52.40;;;;;;5055347;28;20467;-73
2023/03/03 00:13:52;;;;;;;35.67;25.40;;;9.30;52.50;;;;;;5054094;28;20551;-74
2023/03/03 00:16:24;;;;;;;36.30;23.53;;;9.30;52.60;;;;;;5038334;28;20445;-73
2023/03/03 00:18:52;;;;;;;35.67;25.37;;;9.20;52.60;;;;;;5036043;28;20457;-74
2023/03/03 00:21:30;;;;;;;39.13;23.87;;;9.20;52.80;;;;;;5035587;28;20524;-73
2023/03/03 00:24:18;;;;;;;33.53;23.10;;;9.20;53.00;;;;;;5034808;28;20455;-73
2023/03/03 00:26:47;;;;;;;37.27;22.80;;;9.10;52.90;;;;;;5035199;28;20525;-73
2023/03/03 00:29:34;;;;;;;35.37;22.53;;;9.10;52.80;;;;;;5035293;28;20800;-73
2023/03/03 00:32:22;;;;;;;38.50;23.57;;;9.00;52.80;;;;;;5036497;28;20434;-73
2023/03/03 00:34:50;;;;;;;38.00;24.70;;;8.90;52.90;;;;;;5034781;28;20510;-74
2023/03/03 00:37:35;;;;;;;37.07;23.57;;;8.90;53.10;;;;;;5035124;28;20461;-74
2023/03/03 00:40:25;;;;;;;37.50;25.10;;;8.90;53.30;;;;;;5034578;28;20946;-73
2023/03/03 00:42:54;;;;;;;37.20;24.47;;;8.80;53.50;;;;;;5033205;28;20452;-72
2023/03/03 00:45:28;;;;;;;41.07;25.77;;;8.80;53.30;;;;;;5054588;28;20495;-74
2023/03/03 00:47:56;;;;;;;41.90;25.50;;;8.70;53.60;;;;;;5050311;28;20875;-74
2023/03/03 00:50:34;;;;;;;37.57;25.23;;;8.70;53.90;;;;;;5054501;28;20483;-74
2023/03/03 00:53:06;;;;;;;37.50;25.03;;;8.70;54.00;;;;;;5054037;28;20854;-73
2023/03/03 00:55:35;;;;;;;40.00;26.50;;;8.60;53.80;;;;;;5053932;28;20459;-74
2023/03/03 00:58:02;;;;;;;36.83;24.13;;;8.60;53.80;;;;;;5054603;28;20435;-74
2023/03/03 01:00:29;;;;;;;34.53;24.07;;;8.60;53.80;;;;;;5053434;28;20478;-74
2023/03/03 01:02:56;;;;;;;41.30;26.83;;;8.50;53.90;;;;;;5053026;28;20538;-74
2023/03/03 01:05:23;;;;;;;35.07;24.37;;;8.50;54.00;;;;;;5054366;28;20451;-74
2023/03/03 01:07:50;;;;;;;36.43;24.90;;;8.40;54.00;;;;;;5053345;28;20487;-74
2023/03/03 01:10:17;;;;;;;44.10;25.77;;;8.40;53.90;;;;;;5034519;28;20871;-74
2023/03/03 01:12:45;;;;;;;41.93;27.50;;;8.40;54.00;;;;;;5034410;28;20457;-74
2023/03/03 01:15:14;;;;;;;41.13;28.03;;;8.30;54.30;;;;;;5033958;28;20453;-74
2023/03/03 01:17:41;;;;;;;43.17;28.57;;;8.30;54.60;;;;;;5037408;28;20926;-74
2023/03/03 01:20:10;;;;;;;41.90;28.40;;;8.30;54.60;;;;;;5034168;28;20469;-74
2023/03/03 01:22:36;;;;;;;43.00;28.87;;;8.20;54.60;;;;;;5048174;28;20456;-74
2023/03/03 01:25:04;;;;;;;43.47;27.77;;;8.40;54.70;;;;;;5053433;28;20465;-74
2023/03/03 01:27:32;;;;;;;41.43;28.40;;;8.20;54.40;;;;;;5052590;28;20986;-74
2023/03/03 01:30:00;;;;;;;42.47;29.13;;;8.10;54.30;;;;;;5054200;28;20471;-74
2023/03/03 01:32:28;;;;;;;42.20;28.73;;;8.10;54.60;;;;;;5053353;28;20475;-74
2023/03/03 01:34:55;;;;;;;43.13;28.63;;;8.10;54.60;;;;;;5037253;28;20960;-74
2023/03/03 01:37:22;;;;;;;41.00;27.60;;;8.10;54.60;;;;;;5032678;28;20503;-74
2023/03/03 01:39:50;;;;;;;41.60;27.70;;;8.00;54.40;;;;;;5033818;28;20469;-74
2023/03/03 01:42:18;;;;;;;45.20;30.10;;;7.90;54.50;;;;;;5033871;28;20461;-74
2023/03/03 01:44:45;;;;;;;47.93;30.30;;;7.90;55.00;;;;;;5033393;28;20445;-74
2023/03/03 01:47:15;;;;;;;49.33;30.40;;;7.90;55.00;;;;;;5032833;28;20810;-74
2023/03/03 01:49:47;;;;;;;41.07;27.53;;;7.90;55.10;;;;;;5033332;28;20981;-74
2023/03/03 01:52:21;;;;;;;46.80;29.80;;;7.90;55.50;;;;;;5033453;28;20445;-73
2023/03/03 01:54:53;;;;;;;43.23;27.30;;;7.90;55.50;;;;;;5033486;28;20452;-73
2023/03/03 01:57:26;;;;;;;42.97;28.10;;;7.80;55.40;;;;;;5014700;28;20825;-73
2023/03/03 01:59:55;;;;;;;38.90;27.23;;;7.80;55.50;;;;;;5033326;28;20487;-73
2023/03/03 02:02:25;;;;;;;45.80;28.17;;;7.70;55.50;;;;;;5038510;28;20452;-73
2023/03/03 02:04:52;;;;;;;40.33;26.57;;;7.70;55.40;;;;;;5032913;28;20457;-72
2023/03/03 02:07:21;;;;;;;43.53;27.80;;;7.70;55.50;;;;;;5032736;28;20488;-72
2023/03/03 02:09:54;;;;;;;41.63;28.43;;;7.60;55.50;;;;;;5050095;28;20452;-73
2023/03/03 02:12:28;;;;;;;43.97;27.90;;;7.60;55.40;;;;;;5041093;28;20445;-73
2023/03/03 02:14:54;;;;;;;38.33;26.83;;;7.60;55.40;;;;;;5033597;28;20477;-72
2023/03/03 02:17:23;;;;;;;40.93;27.40;;;7.50;55.20;;;;;;5033079;28;20528;-73
2023/03/03 02:19:54;;;;;;;41.27;27.33;;;7.50;55.20;;;;;;5032786;28;20453;-73
2023/03/03 02:22:28;;;;;;;43.57;27.30;;;7.50;55.50;;;;;;5033366;28;20461;-72
2023/03/03 02:24:59;;;;;;;40.17;26.97;;;7.50;55.70;;;;;;5033010;28;20432;-73
2023/03/03 02:27:29;;;;;;;43.83;27.47;;;7.50;55.40;;;;;;5032301;28;20503;-73
2023/03/03 02:29:57;;;;;;;39.87;25.47;;;7.50;55.50;;;;;;5032623;28;20465;-73
2023/03/03 02:32:24;;;;;;;42.87;26.17;;;7.50;55.50;;;;;;5033347;28;20450;-73
2023/03/03 02:34:52;;;;;;;40.17;25.17;;;7.40;55.30;;;;;;5032524;28;20676;-73
2023/03/03 02:37:20;;;;;;;42.50;26.93;;;7.40;55.30;;;;;;5048200;28;21090;-73
2023/03/03 02:39:47;;;;;;;39.43;25.30;;;7.40;55.30;;;;;;5052384;28;20985;-73
2023/03/03 02:42:18;;;;;;;41.97;25.03;;;7.40;55.30;;;;;;5052388;28;20457;-72
2023/03/03 02:44:47;;;;;;;38.80;25.77;;;7.30;55.10;;;;;;5037541;28;20850;-73
2023/03/03 02:47:13;;;;;;;36.67;24.77;;;7.30;55.20;;;;;;5046610;28;20460;-73
2023/03/03 02:49:42;;;;;;;41.37;27.33;;;7.20;55.20;;;;;;5035291;28;20469;-72
2023/03/03 02:52:13;;;;;;;38.97;24.37;;;7.20;55.20;;;;;;5032524;28;20467;-72
2023/03/03 02:54:40;;;;;;;39.60;25.07;;;7.20;55.20;;;;;;5032200;28;20516;-73
2023/03/03 02:57:07;;;;;;;38.40;25.47;;;7.20;55.20;;;;;;5042045;28;20476;-72
2023/03/03 02:59:34;;;;;;;37.33;24.60;;;7.20;55.30;;;;;;5017076;28;20455;-72
2023/03/03 03:02:03;;;;;;;34.60;24.43;;;7.20;55.40;;;;;;5052425;28;20444;-72
2023/03/03 03:04:30;;;;;;;39.20;24.73;;;7.10;55.50;;;;;;5040213;28;20468;-72
2023/03/03 03:06:56;;;;;;;39.93;25.97;;;7.10;55.50;;;;;;5034697;28;20479;-72
2023/03/03 03:09:24;;;;;;;38.90;24.93;;;7.00;55.50;;;;;;5038621;28;20473;-72
2023/03/03 03:11:51;;;;;;;37.00;24.17;;;7.00;55.60;;;;;;5032151;28;20452;-72
2023/03/03 03:14:18;;;;;;;36.97;24.43;;;7.00;55.50;;;;;;5032158;28;20484;-72
2023/03/03 03:16:45;;;;;;;37.13;24.37;;;7.00;55.60;;;;;;5032260;28;20455;-72
2023/03/03 03:19:13;;;;;;;32.77;22.70;;;6.90;55.60;;;;;;5031743;28;20444;-72
2023/03/03 03:21:40;;;;;;;38.53;24.63;;;6.90;55.70;;;;;;5032108;28;20474;-72
2023/03/03 03:24:07;;;;;;;37.90;25.23;;;6.90;56.10;;;;;;5032406;28;20549;-72
2023/03/03 03:26:34;;;;;;;34.08;23.15;;;6.80;56.00;;;;;;5031567;28;20532;-72
2023/03/03 03:29:01;;;;;;;37.92;23.23;;;6.80;56.00;;;;;;5032171;28;20218;-73
2023/03/03 03:31:28;;;;;;;36.93;23.30;;;6.80;56.00;;;;;;5032329;28;20221;-74
2023/03/03 03:33:55;;;;;;;35.80;23.20;;;6.80;56.30;;;;;;5037665;28;20543;-73
2023/03/03 03:36:23;;;;;;;38.28;24.15;;;6.80;56.40;;;;;;5041799;28;20202;-73
2023/03/03 03:38:51;;;;;;;36.30;23.27;;;6.80;56.30;;;;;;5031729;28;20218;-73
2023/03/03 03:41:18;;;;;;;35.33;22.70;;;6.70;56.10;;;;;;5036944;28;20503;-74
2023/03/03 03:43:45;;;;;;;34.83;22.57;;;6.70;56.00;;;;;;5038198;28;21168;-73
2023/03/03 03:46:12;;;;;;;36.93;23.83;;;6.70;56.20;;;;;;5032061;28;20451;-73
2023/03/03 03:48:38;;;;;;;35.92;24.20;;;6.70;56.30;;;;;;5031500;28;20501;-74
2023/03/03 03:51:06;;;;;;;36.67;23.87;;;6.70;56.10;;;;;;5031913;28;20202;-73
2023/03/03 03:53:34;;;;;;;35.22;23.08;;;6.60;56.20;;;;;;5032172;28;20450;-73
2023/03/03 03:56:04;;;;;;;34.72;23.73;;;6.60;55.90;;;;;;5031180;28;20245;-73
2023/03/03 03:58:30;;;;;;;34.75;23.65;;;6.60;56.10;;;;;;5030357;28;20617;-73
2023/03/03 04:01:03;;;;;;;37.55;24.25;;;6.60;56.30;;;;;;5031663;28;20304;-73
2023/03/03 04:03:30;;;;;;;33.05;21.90;;;6.50;56.30;;;;;;5031955;28;20226;-74
2023/03/03 04:05:56;;;;;;;36.03;24.15;;;6.50;56.20;;;;;;5035692;28;20418;-73
2023/03/03 04:08:23;;;;;;;38.90;24.95;;;6.50;56.30;;;;;;5036863;28;20214;-73
2023/03/03 04:10:52;;;;;;;34.58;22.45;;;6.50;56.80;;;;;;5053537;28;20701;-73
2023/03/03 04:13:18;;;;;;;38.67;23.30;;;6.50;56.50;;;;;;5054917;28;20201;-73
2023/03/03 04:15:45;;;;;;;36.08;22.73;;;6.50;56.30;;;;;;5035447;28;20812;-73
2023/03/03 04:18:12;;;;;;;33.75;22.48;;;6.50;56.00;;;;;;5034873;28;20226;-73
2023/03/03 04:20:40;;;;;;;33.63;21.67;;;6.40;55.90;;;;;;5035305;28;20202;-72
2023/03/03 04:23:07;;;;;;;33.63;23.23;;;6.40;55.90;;;;;;5035155;28;20453;-72
2023/03/03 04:25:34;;;;;;;36.80;25.00;;;6.40;55.80;;;;;;5034630;28;20231;-72
2023/03/03 04:28:02;;;;;;;35.72;24.83;;;6.40;55.80;;;;;;5034514;28;20226;-72
2023/03/03 04:30:29;;;;;;;39.00;25.60;;;6.40;55.70;;;;;;5034461;28;20207;-71
2023/03/03 04:32:55;;;;;;;39.25;25.75;;;6.30;55.70;;;;;;5035329;28;20229;-73
2023/03/03 04:35:22;;;;;;;41.05;27.88;;;6.30;55.70;;;;;;5035011;28;20224;-72
2023/03/03 04:37:49;;;;;;;41.95;26.50;;;6.30;55.80;;;;;;5033227;28;20232;-72
2023/03/03 04:40:17;;;;;;;41.30;26.35;;;6.30;55.90;;;;;;5034416;28;20202;-72
2023/03/03 04:42:44;;;;;;;45.38;27.00;;;6.30;56.00;;;;;;5034726;28;20214;-72
2023/03/03 04:45:12;;;;;;;37.00;25.13;;;6.20;56.00;;;;;;5047054;28;20198;-73
2023/03/03 04:47:39;;;;;;;37.03;25.83;;;6.20;56.30;;;;;;5034530;28;20289;-72
2023/03/03 04:50:08;;;;;;;37.35;25.25;;;6.20;56.40;;;;;;5034297;28;20481;-72
2023/03/03 04:52:35;;;;;;;38.97;25.27;;;6.20;56.50;;;;;;5034679;28;20195;-72
2023/03/03 04:55:02;;;;;;;40.63;24.38;;;6.20;56.50;;;;;;5034309;28;20465;-72
2023/03/03 04:57:28;;;;;;;37.60;24.67;;;6.10;57.00;;;;;;5034002;28;20238;-72
2023/03/03 04:59:55;;;;;;;38.80;24.25;;;6.10;56.60;;;;;;5034110;28;20198;-72
2023/03/03 05:02:23;;;;;;;37.05;24.38;;;6.00;56.70;;;;;;5034556;28;20215;-72
2023/03/03 05:04:50;;;;;;;35.03;23.10;;;6.00;56.70;;;;;;5035715;28;20226;-72
2023/03/03 05:07:18;;;;;;;33.78;21.90;;;6.00;56.70;;;;;;5034202;28;20210;-72
2023/03/03 05:09:45;;;;;;;36.85;22.63;;;6.00;57.00;;;;;;5050249;28;20233;-72
2023/03/03 05:12:12;;;;;;;36.10;21.13;;;5.90;56.80;;;;;;5054377;28;20202;-72
2023/03/03 05:14:39;;;;;;;38.40;21.95;;;5.90;56.70;;;;;;5053403;28;20649;-73
2023/03/03 05:17:06;;;;;;;33.03;21.55;;;5.90;56.70;;;;;;5044564;28;20253;-73
2023/03/03 05:19:34;;;;;;;30.52;21.52;;;5.90;56.80;;;;;;5033963;28;20557;-73
2023/03/03 05:22:01;;;;;;;32.28;21.38;;;5.90;56.80;;;;;;5032893;28;20225;-72
2023/03/03 05:24:28;;;;;;;30.33;21.15;;;5.90;56.70;;;;;;5037159;28;20202;-72
2023/03/03 05:26:55;;;;;;;32.67;20.77;;;5.90;56.30;;;;;;5054043;28;20206;-71
2023/03/03 05:29:22;;;;;;;32.35;20.65;;;5.90;56.50;;;;;;5053422;28;20328;-72
2023/03/03 05:31:49;;;;;;;33.72;23.33;;;5.90;56.60;;;;;;5053908;28;20305;-72
2023/03/03 05:34:16;;;;;;;35.45;23.23;;;5.90;56.70;;;;;;5052973;28;20202;-73
2023/03/03 05:36:44;;;;;;;37.53;26.52;;;5.90;56.70;;;;;;5053677;28;21253;-72
2023/03/03 05:39:13;;;;;;;39.15;25.13;;;5.90;56.70;;;;;;5053398;28;20294;-73
2023/03/03 05:41:40;;;;;;;37.97;25.83;;;5.90;56.70;;;;;;5053090;28;20201;-73
2023/03/03 05:44:07;;;;;;;35.50;24.77;;;5.90;56.70;;;;;;5052855;28;20236;-73
2023/03/03 05:46:34;;;;;;;38.13;24.23;;;6.00;56.90;;;;;;5053671;28;20218;-73
2023/03/03 05:49:01;;;;;;;34.40;24.60;;;6.00;56.70;;;;;;5053014;28;20226;-73
2023/03/03 05:51:28;;;;;;;38.30;27.88;;;5.90;56.70;;;;;;5052692;28;20238;-73
2023/03/03 05:53:56;;;;;;;37.45;24.85;;;5.90;56.70;;;;;;5053196;28;20217;-73
2023/03/03 05:56:23;;;;;;;37.17;24.05;;;6.00;56.90;;;;;;5052880;28;20547;-73
2023/03/03 05:58:50;;;;;;;36.50;22.92;;;6.00;56.90;;;;;;5053286;28;20197;-73
2023/03/03 06:01:17;;;;;;;38.85;24.38;;;6.00;57.10;;;;;;5051724;28;20757;-73
2023/03/03 06:03:44;;;;;;;35.22;22.23;;;6.00;57.30;;;;;;5044034;28;20313;-72
2023/03/03 06:06:12;;;;;;;35.08;23.83;;;6.00;57.40;;;;;;5032781;28;20281;-73
2023/03/03 06:08:39;;;;;;;37.85;23.67;;;6.00;57.20;;;;;;5040706;28;20268;-73
2023/03/03 06:11:08;;;;;;;36.95;23.30;;;6.10;57.10;;;;;;5052646;28;20316;-72
2023/03/03 06:13:34;;;;;;;37.72;24.58;;;6.10;57.10;;;;;;5052824;28;20300;-72
2023/03/03 06:16:01;;;;;;;36.40;24.38;;;6.10;57.10;;;;;;5052441;28;20208;-72
2023/03/03 06:18:28;;;;;;;39.25;24.25;;;6.10;57.50;;;;;;5052201;28;20604;-73
2023/03/03 06:20:55;;;;;;;38.17;25.13;;;6.10;57.50;;;;;;5052246;28;20212;-72
2023/03/03 06:23:22;;;;;;;38.10;23.92;;;6.10;57.50;;;;;;5052658;28;20228;-72
2023/03/03 06:25:49;;;;;;;40.45;24.75;;;6.20;57.50;;;;;;5052349;28;20208;-73
2023/03/03 06:28:17;;;;;;;38.30;25.60;;;6.20;57.50;;;;;;5052322;28;20213;-72
2023/03/03 06:30:44;;;;;;;34.92;24.45;;;6.20;57.60;;;;;;5051792;28;20237;-72
2023/03/03 06:33:11;;;;;;;36.40;24.73;;;6.20;57.60;;;;;;5051441;28;20555;-73
2023/03/03 06:35:39;;;;;;;36.67;24.90;;;6.20;57.50;;;;;;5043308;28;20545;-73
2023/03/03 06:38:05;;;;;;;38.85;24.38;;;6.30;57.70;;;;;;5052407;28;20216;-73
2023/03/03 06:40:32;;;;;;;40.22;25.08;;;6.20;57.80;;;;;;5052250;28;20198;-73
2023/03/03 06:43:01;;;;;;;42.92;26.48;;;6.30;58.00;;;;;;5052395;28;20703;-72
2023/03/03 06:45:29;;;;;;;41.40;27.70;;;6.30;58.00;;;;;;5051908;28;20213;-72
2023/03/03 06:47:56;;;;;;;44.17;29.33;;;6.30;58.20;;;;;;5052216;28;20206;-72
2023/03/03 06:50:23;;;;;;;44.92;29.52;;;6.30;58.30;;;;;;5051646;28;20233;-72
2023/03/03 06:52:55;;;;;;;39.58;27.27;;;6.30;58.30;;;;;;5051259;28;20674;-72
2023/03/03 06:55:23;;;;;;;39.90;26.33;;;6.30;58.30;;;;;;5032286;28;20297;-71
2023/03/03 06:57:50;;;;;;;35.27;24.63;;;6.40;58.40;;;;;;5031891;28;20238;-72
2023/03/03 07:00:22;;;;;;;39.42;24.92;;;6.40;58.70;;;;;;5048568;28;20560;-72
2023/03/03 07:02:59;;;;;;;39.00;24.30;;;6.40;58.40;;;;;;5033348;28;20685;-72
2023/03/03 07:05:28;;;;;;;37.13;24.80;;;6.50;58.40;;;;;;5042458;28;20275;-72
2023/03/03 07:07:56;;;;;;;37.65;25.90;;;6.60;58.50;;;;;;5044222;28;20245;-73
2023/03/03 07:10:25;;;;;;;38.35;23.60;;;6.60;58.60;;;;;;5032065;28;20598;-73
2023/03/03 07:12:52;;;;;;;39.65;25.85;;;6.60;58.20;;;;;;5032647;28;20228;-72
2023/03/03 07:15:24;;;;;;;36.47;24.15;;;6.70;58.40;;;;;;5035546;28;20656;-72
2023/03/03 07:17:58;;;;;;;34.53;23.40;;;6.70;58.30;;;;;;5032970;28;20681;-72
2023/03/03 07:20:30;;;;;;;39.60;24.63;;;6.70;58.30;;;;;;5043268;28;20206;-72
2023/03/03 07:22:58;;;;;;;37.27;24.30;;;6.80;58.20;;;;;;5032760;28;20637;-73
2023/03/03 07:25:31;;;;;;;34.25;23.88;;;6.80;58.40;;;;;;5051946;28;20521;-72
2023/03/03 07:28:04;;;;;;;40.58;24.63;;;6.90;58.40;;;;;;5051156;28;20209;-72
2023/03/03 07:30:34;;;;;;;35.88;25.08;;;6.90;58.50;;;;;;5032975;28;20230;-72
2023/03/03 07:33:02;;;;;;;41.87;25.90;;;6.90;58.50;;;;;;5031783;28;20317;-71
2023/03/03 07:35:47;;;;;;;39.67;24.37;;;7.00;58.50;;;;;;5037558;28;20548;-72
2023/03/03 07:38:37;;;;;;;35.23;23.60;;;7.10;58.60;;;;;;5032208;28;20841;-75
2023/03/03 07:41:08;;;;;;;39.33;26.03;;;7.10;58.90;;;;;;5026741;28;20465;-74
2023/03/03 07:43:37;;;;;;;39.03;25.70;;;7.10;58.70;;;;;;5032927;28;20536;-74
2023/03/03 07:46:22;;;;;;;37.27;24.53;;;7.20;58.60;;;;;;5042203;28;20699;-75
2023/03/03 07:48:52;;;;;;;37.40;24.87;;;7.30;58.60;;;;;;5055301;28;20531;-73
2023/03/03 07:51:24;;;;;;;35.50;24.08;;;7.30;58.40;;;;;;5036160;28;20457;-75
2023/03/03 07:53:51;;;;;;;37.40;24.97;;;7.30;58.40;;;;;;5051511;28;20226;-74
2023/03/03 07:56:29;;;;;;;38.33;25.83;;;7.40;58.80;;;;;;5038436;28;20998;-75
2023/03/03 07:58:58;;;;;;;38.77;25.17;;;7.50;58.70;;;;;;5056388;28;20482;-75
2023/03/03 08:01:38;;;;;;;39.77;26.33;;;7.50;58.50;;;;;;5055973;28;20448;-75
2023/03/03 08:04:17;;;;;;;39.63;25.00;;;7.60;58.40;;;;;;5056189;28;20769;-76
2023/03/03 08:06:49;;;;;;;39.03;24.90;;;7.60;58.40;;;;;;5020962;28;20471;-74
2023/03/03 08:09:39;;;;;;;38.10;25.40;;;7.70;58.50;;;;;;5051690;28;20570;-75
2023/03/03 08:12:41;;;;;;;38.97;25.77;;;7.70;58.40;;;;;;5027855;28;20457;-76
2023/03/03 08:15:17;;;;;;;39.90;25.43;;;7.80;58.40;;;;;;5035892;28;20472;-75
2023/03/03 08:17:45;;;;;;;40.63;26.80;;;7.80;58.60;;;;;;5017183;28;20526;-75
2023/03/03 08:20:50;;;;;;;40.57;27.27;;;7.90;58.50;;;;;;5049394;28;20448;-75
2023/03/03 08:23:19;;;;;;;39.80;26.40;;;8.00;58.50;;;;;;4989507;28;20573;-75
2023/03/03 08:25:47;;;;;;;41.57;27.47;;;8.10;58.30;;;;;;4964060;28;20319;-75
2023/03/03 08:28:14;;;;;;;38.30;26.40;;;8.10;58.10;;;;;;5004474;28;20457;-75
2023/03/03 08:30:42;;;;;;;40.30;26.37;;;8.20;58.00;;;;;;5034963;28;21252;-76
2023/03/03 08:33:09;;;;;;;36.97;25.97;;;8.40;57.80;;;;;;5035707;28;20455;-76
2023/03/03 08:35:36;;;;;;;44.53;27.10;;;8.50;57.70;;;;;;5035533;28;20453;-75
2023/03/03 08:38:05;;;;;;;37.90;26.97;;;8.70;57.50;;;;;;5035149;28;20463;-74
2023/03/03 08:40:32;;;;;;;38.00;26.80;;;8.80;57.30;;;;;;5034822;28;20776;-76
2023/03/03 08:43:00;;;;;;;36.03;24.30;;;9.00;57.10;;;;;;5034369;28;20467;-76
2023/03/03 08:45:27;;;;;;;33.93;24.17;;;9.10;56.90;;;;;;5034295;28;20459;-76
2023/03/03 08:47:55;;;;;;;29.53;20.77;;;9.20;56.20;;;;;;5051425;28;20445;-76
2023/03/03 08:50:23;;;;;;;30.87;21.80;;;9.40;55.90;;;;;;5054376;28;20574;-75
2023/03/03 08:52:50;;;;;;;28.53;22.20;;;9.50;55.50;;;;;;5054453;28;20556;-75
2023/03/03 08:55:18;;;;;;;27.77;19.97;;;9.70;55.00;;;;;;5054401;28;20484;-75
2023/03/03 08:57:45;;;;;;;29.47;21.10;;;9.80;54.70;;;;;;5052986;28;20466;-75
2023/03/03 09:00:16;;;;;;;31.83;22.20;;;9.90;54.40;;;;;;5054082;28;20555;-75
2023/03/03 09:03:01;;;;;;;29.73;21.53;;;10.10;53.60;;;;;;5053979;28;21004;-75
2023/03/03 09:05:29;;;;;;;35.47;23.20;;;10.10;53.60;;;;;;5054141;28;20459;-76
2023/03/03 09:07:59;;;;;;;34.33;23.13;;;10.20;53.70;;;;;;5052152;28;20515;-76
2023/03/03 09:10:34;;;;;;;31.93;23.47;;;10.30;53.70;;;;;;5034482;28;20568;-76
2023/03/03 09:13:07;;;;;;;33.40;22.60;;;10.40;53.50;;;;;;5054003;28;20833;-75
2023/03/03 09:15:38;;;;;;;31.93;22.50;;;10.40;53.40;;;;;;5051510;28;20519;-76
2023/03/03 09:18:19;;;;;;;31.57;21.80;;;10.50;53.00;;;;;;5033963;28;20453;-76
2023/03/03 09:20:59;;;;;;;29.40;21.70;;;10.60;52.90;;;;;;5034016;28;20938;-75
2023/03/03 09:23:34;;;;;;;36.57;23.43;;;10.70;53.00;;;;;;5034650;28;20437;-76
2023/03/03 09:26:28;;;;;;;31.67;22.40;;;10.80;52.80;;;;;;5034688;28;20534;-77
2023/03/03 09:29:11;;;;;;;33.97;23.03;;;10.80;52.60;;;;;;5034718;28;20890;-75
2023/03/03 09:31:44;;;;;;;33.97;23.37;;;10.80;52.60;;;;;;5034871;28;20821;-76
2023/03/03 09:34:23;;;;;;;30.33;21.73;;;10.90;52.70;;;;;;5035032;28;20532;-75
2023/03/03 09:36:51;;;;;;;30.80;21.73;;;11.00;52.60;;;;;;5034815;28;20777;-77
2023/03/03 09:39:19;;;;;;;33.23;22.97;;;11.10;52.30;;;;;;5034980;28;20444;-76
2023/03/03 09:42:34;;;;;;;31.63;22.23;;;11.20;52.30;;;;;;5034814;28;20552;-76
2023/03/03 09:45:29;;;;;;;28.43;22.07;;;11.30;52.00;;;;;;5034509;28;20477;-76
2023/03/03 09:48:10;;;;;;;27.00;20.63;;;11.50;51.70;;;;;;5035022;28;20442;-75
2023/03/03 09:50:48;;;;;;;29.27;21.70;;;11.70;51.50;;;;;;5034523;28;20913;-75
2023/03/03 09:53:23;;;;;;;28.77;21.10;;;11.90;51.30;;;;;;5034376;28;20524;-75
2023/03/03 09:55:56;;;;;;;26.17;19.67;;;12.00;50.80;;;;;;5034251;28;20695;-76
2023/03/03 09:58:36;;;;;;;27.37;20.07;;;12.10;50.80;;;;;;5034354;28;20500;-76
2023/03/03 10:01:21;;;;;;;29.03;20.43;;;12.20;50.50;;;;;;5044281;28;20536;-75
2023/03/03 10:04:17;;;;;;;27.30;20.00;;;12.30;49.90;;;;;;5054306;28;20471;-75
2023/03/03 10:06:48;;;;;;;24.00;19.17;;;12.40;49.70;;;;;;5054362;28;20448;-75
2023/03/03 10:09:40;;;;;;;26.90;20.23;;;12.40;49.30;;;;;;5053472;28;20468;-76
2023/03/03 10:12:13;;;;;;;27.13;19.23;;;12.50;49.10;;;;;;5052186;28;20459;-77
2023/03/03 10:15:03;;;;;;;25.67;18.90;;;12.70;49.00;;;;;;5052729;28;20579;-79
2023/03/03 10:17:48;;;;;;;24.23;17.93;;;12.80;48.80;;;;;;5054052;28;20441;-77
2023/03/03 10:20:37;;;;;;;22.47;17.90;;;12.90;48.40;;;;;;5053546;28;20460;-77
2023/03/03 10:23:19;;;;;;;23.77;17.90;;;13.00;47.70;;;;;;5054097;28;20439;-76
2023/03/03 10:26:00;;;;;;;30.53;18.50;;;13.00;47.60;;;;;;5053787;28;20432;-77
2023/03/03 10:29:16;;;;;;;23.17;17.47;;;13.10;47.30;;;;;;5053450;28;20819;-76
2023/03/03 10:32:05;;;;;;;24.53;17.93;;;13.20;46.90;;;;;;5053513;28;20472;-76
2023/03/03 10:35:02;;;;;;;27.13;18.87;;;13.30;47.20;;;;;;5053345;28;20546;-77
2023/03/03 10:37:36;;;;;;;21.50;16.93;;;13.50;46.50;;;;;;5053810;28;20459;-76
2023/03/03 10:40:20;;;;;;;26.10;17.40;;;13.70;46.40;;;;;;5053582;28;20562;-76
2023/03/03 10:43:09;;;;;;;22.93;17.27;;;13.80;46.50;;;;;;5047859;28;20797;-77
2023/03/03 10:45:48;;;;;;;23.50;18.17;;;14.00;46.20;;;;;;5033439;28;20555;-78
2023/03/03 10:48:30;;;;;;;25.73;19.07;;;14.10;45.80;;;;;;5033207;28;20437;-76
2023/03/03 10:51:08;;;;;;;25.60;19.20;;;14.30;44.90;;;;;;5033722;28;20560;-77
2023/03/03 10:53:46;;;;;;;23.00;16.93;;;14.40;45.00;;;;;;5033728;28;20535;-78
2023/03/03 10:56:31;;;;;;;24.57;17.70;;;14.50;44.80;;;;;;5014684;28;20467;-77
2023/03/03 10:59:13;;;;;;;24.37;18.50;;;14.70;44.90;;;;;;5033130;28;20565;-77
2023/03/03 11:01:53;;;;;;;20.97;16.67;;;14.80;44.90;;;;;;5033195;28;20444;-77
2023/03/03 11:04:38;;;;;;;22.30;17.87;;;15.00;44.40;;;;;;5033368;28;20479;-76
2023/03/03 11:07:11;;;;;;;22.60;17.57;;;15.10;43.80;;;;;;5031990;28;20528;-78
2023/03/03 11:09:53;;;;;;;22.00;16.70;;;15.20;44.10;;;;;;5032026;28;20430;-79
2023/03/03 11:12:33;;;;;;;22.90;17.07;;;15.30;43.10;;;;;;5033236;28;20520;-76
2023/03/03 11:15:22;;;;;;;25.23;17.43;;;15.40;43.00;;;;;;5032229;28;20433;-77
2023/03/03 11:18:02;;;;;;;19.57;15.90;;;15.50;42.90;;;;;;5030246;28;20968;-77
2023/03/03 11:20:38;;;;;;;22.50;17.20;;;15.70;43.10;;;;;;5035763;28;20460;-79
2023/03/03 11:23:21;;;;;;;19.40;16.93;;;15.80;42.50;;;;;;5037093;28;20476;-78
2023/03/03 11:25:54;;;;;;;21.20;17.33;;;15.80;42.00;;;;;;5036644;28;20455;-78
2023/03/03 11:28:33;;;;;;;22.13;17.03;;;16.00;42.00;;;;;;5036857;28;20991;-77
2023/03/03 11:31:12;;;;;;;25.70;18.43;;;16.10;41.70;;;;;;5037225;28;20469;-77
2023/03/03 11:33:50;;;;;;;21.67;18.17;;;16.20;41.10;;;;;;5036991;28;20438;-77
2023/03/03 11:36:21;;;;;;;21.60;17.47;;;16.30;41.20;;;;;;5037295;28;21015;-78
2023/03/03 11:38:56;;;;;;;26.13;18.13;;;16.30;40.80;;;;;;5037026;28;20451;-78
2023/03/03 11:41:37;;;;;;;25.53;18.00;;;16.40;40.90;;;;;;5036825;28;20429;-77
2023/03/03 11:44:15;;;;;;;19.57;16.77;;;16.50;40.80;;;;;;5035944;28;20440;-77
2023/03/03 11:46:47;;;;;;;22.80;17.83;;;16.60;40.50;;;;;;5036479;28;20996;-79
2023/03/03 11:49:21;;;;;;;20.93;16.97;;;16.60;40.10;;;;;;5035249;28;21020;-77
2023/03/03 11:51:55;;;;;;;24.00;18.27;;;16.70;40.30;;;;;;5036469;28;20546;-77
2023/03/03 11:54:27;;;;;;;24.63;17.97;;;16.70;39.80;;;;;;5036449;28;20472;-78
2023/03/03 11:57:00;;;;;;;22.47;17.73;;;16.80;39.80;;;;;;5036339;28;20894;-78
2023/03/03 11:59:47;;;;;;;24.43;18.33;;;16.90;39.40;;;;;;5036331;28;20479;-78
2023/03/03 12:02:28;;;;;;;23.50;18.50;;;17.10;39.40;;;;;;5035962;28;21036;-78
2023/03/03 12:04:59;;;;;;;22.87;17.50;;;17.20;39.50;;;;;;5036550;28;20478;-79
2023/03/03 12:07:34;;;;;;;20.67;16.87;;;17.20;39.20;;;;;;5036257;28;20484;-78
2023/03/03 12:10:20;;;;;;;19.87;16.83;;;17.30;39.20;;;;;;5035866;28;20437;-76
2023/03/03 12:12:55;;;;;;;22.97;18.23;;;17.50;38.70;;;;;;5036509;28;20565;-78
2023/03/03 12:15:37;;;;;;;19.77;17.10;;;17.60;39.00;;;;;;5054491;28;20535;-78
2023/03/03 12:18:31;;;;;;;22.10;17.83;;;17.70;38.90;;;;;;5056278;28;20450;-77
2023/03/03 12:21:12;;;;;;;23.83;18.03;;;17.80;38.50;;;;;;5056045;28;20543;-78
2023/03/03 12:24:03;;;;;;;22.63;18.27;;;17.90;38.00;;;;;;5055953;28;20799;-77
2023/03/03 12:26:39;;;;;;;21.93;17.47;;;18.00;37.80;;;;;;5055996;28;20519;-79
2023/03/03 12:29:13;;;;;;;22.97;17.90;;;18.10;38.20;;;;;;5055717;28;20448;-77
2023/03/03 12:31:51;;;;;;;24.00;18.73;;;18.10;37.80;;;;;;5054841;28;20499;-78
2023/03/03 12:34:26;;;;;;;22.33;18.10;;;18.30;37.60;;;;;;5056006;28;20190;-78
2023/03/03 12:37:19;;;;;;;21.97;17.13;;;18.30;37.10;;;;;;5055371;28;20468;-77
2023/03/03 12:39:58;;;;;;;22.47;17.83;;;18.50;37.20;;;;;;5055321;28;20459;-77
2023/03/03 12:42:37;;;;;;;21.07;17.80;;;18.50;36.80;;;;;;5054297;28;20574;-78
2023/03/03 12:45:18;;;;;;;21.33;17.77;;;18.60;37.20;;;;;;5055438;28;20520;-78
2023/03/03 12:47:50;;;;;;;20.03;17.77;;;18.70;37.00;;;;;;5055198;28;20194;-78
2023/03/03 12:50:31;;;;;;;21.80;18.07;;;18.80;37.00;;;;;;5054061;28;20479;-78
2023/03/03 12:53:08;;;;;;;21.73;17.43;;;19.00;36.50;;;;;;5054963;28;20202;-78
2023/03/03 12:55:46;;;;;;;22.33;17.70;;;19.10;36.60;;;;;;5055021;28;20743;-78
2023/03/03 12:58:29;;;;;;;18.67;16.30;;;19.20;36.20;;;;;;5053721;28;20217;-79
2023/03/03 13:01:07;;;;;;;21.10;17.90;;;19.30;36.40;;;;;;5034368;28;20190;-76